Accueil
METAR-TAF:

METAR-TAF

Aéroports :

Aéroport domestique de Najran

Najran, Arabie saoudite

latitude: 17-37N, longitude: 044-25E, altitude: 1212 m

Observation

Le bulletin a été fait il y a 27 minutes, à 11:00 UTC
Vent 6 kt de est/sud-est
Température 27°C
Humidité 30%
Pression 1019 hPa
Visibilité 10 km ou plus
pas de nuages en-dessous de 1500 mètres et pas de cumulonimbus.

METAR: OENG 201100Z 11006KT CAVOK 27/08 Q1019 NOSIG

Heure: 14:27 (11:27 UTC)

Prévision

Le bulletin a été fait il y a 12 heures et 27 minutes, à 23:00 UTC
Prévision valable du 20 à 00 UTC au 21 à 06 UTC
Vent 3 kt de direction variable
Visibilité 10 km ou plus
pas de nuages en-dessous de 1500 mètres et pas de cumulonimbus.
Evoluant progressivement
du 20 à 06 UTC au 20 à 08 UTC
Vent 10 kt de nord-est
Evoluant progressivement
du 20 à 18 UTC au 20 à 20 UTC
Vent 8 kt de ouest

TAF: OENG 192300Z 2000/2106 VRB03KT CAVOK BECMG 2006/2008 05010KT BECMG 2018/2020 28008KT

Observations et prévisions météorologiques de plus de 4000 aéroports (messages METAR et TAF).

Les stations disponibles sont représentées par des disques jaunes et rouges sur la carte.

Passer la souris dessus pour voir le nom de la station.

Cliquer dessus pour voir les observations et prévisions météorologiques.

Pour changer de carte: cliquez sur les boutons verts avec une croix noire pour zoomer, sur le bouton vert avec un tiret pour effectuer un zoom arrière, ou sur les flèches vertes pour les cartes adjacentes.


METAR-TAF: